sensor_id;sensor_type;location;lat;lon;timestamp;pressure;altitude;pressure_sealevel;temperature;humidity
75933;BME280;64803;52.356;5.310;2023-03-26T00:01:28;101001.44;;;7.73;100.00
75933;BME280;64803;52.356;5.310;2023-03-26T00:03:54;101003.25;;;7.73;100.00
75933;BME280;64803;52.356;5.310;2023-03-26T00:06:24;101004.78;;;7.75;100.00
75933;BME280;64803;52.356;5.310;2023-03-26T00:08:52;101000.13;;;7.77;100.00
75933;BME280;64803;52.356;5.310;2023-03-26T00:11:19;100990.38;;;7.68;100.00
75933;BME280;64803;52.356;5.310;2023-03-26T00:13:46;101004.47;;;7.78;100.00
75933;BME280;64803;52.356;5.310;2023-03-26T00:16:15;101005.31;;;7.79;100.00
75933;BME280;64803;52.356;5.310;2023-03-26T00:18:41;101001.44;;;7.73;100.00
75933;BME280;64803;52.356;5.310;2023-03-26T00:21:09;100995.03;;;7.66;100.00
75933;BME280;64803;52.356;5.310;2023-03-26T00:23:37;100996.00;;;7.65;100.00
75933;BME280;64803;52.356;5.310;2023-03-26T00:26:04;100998.16;;;7.62;100.00
75933;BME280;64803;52.356;5.310;2023-03-26T00:28:36;101004.34;;;7.62;100.00
75933;BME280;64803;52.356;5.310;2023-03-26T00:31:07;100999.31;;;7.59;100.00
75933;BME280;64803;52.356;5.310;2023-03-26T00:33:34;100997.25;;;7.53;100.00
75933;BME280;64803;52.356;5.310;2023-03-26T00:36:08;100988.56;;;7.51;100.00
75933;BME280;64803;52.356;5.310;2023-03-26T00:38:39;100993.22;;;7.49;100.00
75933;BME280;64803;52.356;5.310;2023-03-26T00:41:08;100989.72;;;7.49;100.00
75933;BME280;64803;52.356;5.310;2023-03-26T00:43:44;100988.88;;;7.48;100.00
75933;BME280;64803;52.356;5.310;2023-03-26T00:46:13;100984.53;;;7.47;100.00
75933;BME280;64803;52.356;5.310;2023-03-26T00:48:40;100986.50;;;7.45;100.00
75933;BME280;64803;52.356;5.310;2023-03-26T00:51:09;100978.81;;;7.42;100.00
75933;BME280;64803;52.356;5.310;2023-03-26T00:53:36;100969.94;;;7.42;100.00
75933;BME280;64803;52.356;5.310;2023-03-26T00:56:04;100985.44;;;7.38;100.00
75933;BME280;64803;52.356;5.310;2023-03-26T00:58:31;100978.03;;;7.32;100.00
75933;BME280;64803;52.356;5.310;2023-03-26T01:01:01;100977.97;;;7.24;100.00
75933;BME280;64803;52.356;5.310;2023-03-26T01:03:30;100953.34;;;6.95;100.00
75933;BME280;64803;52.356;5.310;2023-03-26T01:06:01;100985.91;;;6.99;100.00
75933;BME280;64803;52.356;5.310;2023-03-26T01:08:37;100981.13;;;7.02;100.00
75933;BME280;64803;52.356;5.310;2023-03-26T01:11:11;100984.31;;;7.06;100.00
75933;BME280;64803;52.356;5.310;2023-03-26T01:13:48;100979.81;;;7.06;100.00
75933;BME280;64803;52.356;5.310;2023-03-26T01:16:34;100974.47;;;7.06;100.00
75933;BME280;64803;52.356;5.310;2023-03-26T01:19:05;100975.16;;;7.08;100.00
75933;BME280;64803;52.356;5.310;2023-03-26T01:21:36;100968.53;;;7.12;100.00
75933;BME280;64803;52.356;5.310;2023-03-26T01:24:05;100963.34;;;7.11;100.00
75933;BME280;64803;52.356;5.310;2023-03-26T01:26:57;100969.66;;;7.10;100.00
75933;BME280;64803;52.356;5.310;2023-03-26T01:32:12;100946.31;;;7.12;100.00
75933;BME280;64803;52.356;5.310;2023-03-26T01:34:51;100945.50;;;7.11;100.00
75933;BME280;64803;52.356;5.310;2023-03-26T01:38:07;100931.44;;;7.09;100.00
75933;BME280;64803;52.356;5.310;2023-03-26T01:45:50;100925.66;;;6.96;100.00
75933;BME280;64803;52.356;5.310;2023-03-26T01:48:17;100917.25;;;6.91;100.00
75933;BME280;64803;52.356;5.310;2023-03-26T01:50:43;100921.38;;;6.85;100.00
75933;BME280;64803;52.356;5.310;2023-03-26T01:53:10;100906.53;;;6.83;100.00
75933;BME280;64803;52.356;5.310;2023-03-26T02:01:40;100907.31;;;6.66;100.00
75933;BME280;64803;52.356;5.310;2023-03-26T02:07:08;100892.38;;;6.38;100.00
75933;BME280;64803;52.356;5.310;2023-03-26T02:09:43;100890.91;;;6.26;100.00
75933;BME280;64803;52.356;5.310;2023-03-26T02:12:12;100882.97;;;6.16;100.00
75933;BME280;64803;52.356;5.310;2023-03-26T02:14:40;100881.03;;;6.09;100.00
75933;BME280;64803;52.356;5.310;2023-03-26T02:17:07;100884.47;;;6.01;100.00
75933;BME280;64803;52.356;5.310;2023-03-26T02:19:36;100873.75;;;5.84;100.00
75933;BME280;64803;52.356;5.310;2023-03-26T02:22:08;100880.31;;;5.80;100.00
75933;BME280;64803;52.356;5.310;2023-03-26T02:24:37;100876.00;;;5.69;100.00
75933;BME280;64803;52.356;5.310;2023-03-26T02:27:04;100880.09;;;5.63;100.00
75933;BME280;64803;52.356;5.310;2023-03-26T02:29:34;100858.16;;;5.42;100.00
75933;BME280;64803;52.356;5.310;2023-03-26T02:32:07;100877.63;;;5.52;100.00
75933;BME280;64803;52.356;5.310;2023-03-26T02:34:34;100876.16;;;5.58;100.00
75933;BME280;64803;52.356;5.310;2023-03-26T02:37:01;100878.41;;;5.62;100.00
75933;BME280;64803;52.356;5.310;2023-03-26T02:39:28;100873.78;;;5.64;100.00
75933;BME280;64803;52.356;5.310;2023-03-26T02:41:57;100875.84;;;5.70;100.00
75933;BME280;64803;52.356;5.310;2023-03-26T02:44:23;100869.94;;;5.77;100.00
75933;BME280;64803;52.356;5.310;2023-03-26T02:47:10;100856.44;;;5.88;100.00
75933;BME280;64803;52.356;5.310;2023-03-26T02:49:51;100859.53;;;5.93;100.00
75933;BME280;64803;52.356;5.310;2023-03-26T02:52:43;100854.88;;;5.95;100.00
75933;BME280;64803;52.356;5.310;2023-03-26T02:55:10;100823.13;;;5.84;100.00
75933;BME280;64803;52.356;5.310;2023-03-26T02:57:38;100846.69;;;6.06;100.00
75933;BME280;64803;52.356;5.310;2023-03-26T03:00:15;100839.53;;;6.06;100.00
75933;BME280;64803;52.356;5.310;2023-03-26T03:02:44;100835.78;;;5.99;100.00
75933;BME280;64803;52.356;5.310;2023-03-26T03:05:32;100837.94;;;5.86;100.00
75933;BME280;64803;52.356;5.310;2023-03-26T03:08:10;100836.97;;;5.78;100.00
75933;BME280;64803;52.356;5.310;2023-03-26T03:10:57;100831.00;;;5.66;100.00
75933;BME280;64803;52.356;5.310;2023-03-26T03:13:35;100830.66;;;5.51;100.00
75933;BME280;64803;52.356;5.310;2023-03-26T03:16:01;100830.84;;;5.40;100.00
75933;BME280;64803;52.356;5.310;2023-03-26T03:18:28;100830.88;;;5.21;100.00
75933;BME280;64803;52.356;5.310;2023-03-26T03:20:54;100833.44;;;5.13;100.00
75933;BME280;64803;52.356;5.310;2023-03-26T03:23:20;100838.47;;;5.16;100.00
75933;BME280;64803;52.356;5.310;2023-03-26T03:25:47;100826.94;;;5.25;100.00
75933;BME280;64803;52.356;5.310;2023-03-26T03:28:15;100825.09;;;5.35;100.00
75933;BME280;64803;52.356;5.310;2023-03-26T03:30:43;100823.19;;;5.55;100.00
75933;BME280;64803;52.356;5.310;2023-03-26T03:33:25;100822.88;;;5.67;100.00
75933;BME280;64803;52.356;5.310;2023-03-26T03:35:51;100816.66;;;5.77;100.00
75933;BME280;64803;52.356;5.310;2023-03-26T03:38:18;100821.41;;;5.83;100.00
75933;BME280;64803;52.356;5.310;2023-03-26T03:40:47;100819.13;;;5.88;100.00
75933;BME280;64803;52.356;5.310;2023-03-26T03:43:14;100819.25;;;5.96;100.00
75933;BME280;64803;52.356;5.310;2023-03-26T03:45:58;100809.53;;;6.04;100.00
75933;BME280;64803;52.356;5.310;2023-03-26T03:48:33;100797.97;;;6.13;100.00
75933;BME280;64803;52.356;5.310;2023-03-26T03:51:04;100798.50;;;6.17;100.00
75933;BME280;64803;52.356;5.310;2023-03-26T03:54:00;100794.53;;;6.21;100.00
75933;BME280;64803;52.356;5.310;2023-03-26T03:56:39;100791.19;;;6.19;100.00
75933;BME280;64803;52.356;5.310;2023-03-26T03:59:44;100795.84;;;6.17;100.00
75933;BME280;64803;52.356;5.310;2023-03-26T04:02:12;100789.13;;;6.13;100.00
75933;BME280;64803;52.356;5.310;2023-03-26T04:04:44;100781.44;;;6.10;100.00
75933;BME280;64803;52.356;5.310;2023-03-26T04:07:12;100788.59;;;6.09;100.00
75933;BME280;64803;52.356;5.310;2023-03-26T04:10:05;100781.31;;;6.02;100.00
75933;BME280;64803;52.356;5.310;2023-03-26T04:12:50;100781.84;;;5.88;100.00
75933;BME280;64803;52.356;5.310;2023-03-26T04:15:19;100785.03;;;5.64;100.00
75933;BME280;64803;52.356;5.310;2023-03-26T04:17:46;100778.31;;;5.60;100.00
75933;BME280;64803;52.356;5.310;2023-03-26T04:20:14;100778.47;;;5.58;100.00
75933;BME280;64803;52.356;5.310;2023-03-26T04:22:42;100777.19;;;5.62;100.00
75933;BME280;64803;52.356;5.310;2023-03-26T04:25:11;100783.47;;;5.71;100.00
75933;BME280;64803;52.356;5.310;2023-03-26T04:27:55;100783.16;;;5.84;100.00
75933;BME280;64803;52.356;5.310;2023-03-26T04:30:43;100778.97;;;5.99;100.00
75933;BME280;64803;52.356;5.310;2023-03-26T04:33:30;100770.63;;;6.11;100.00
75933;BME280;64803;52.356;5.310;2023-03-26T04:35:57;100772.38;;;6.20;100.00
75933;BME280;64803;52.356;5.310;2023-03-26T04:38:30;100760.63;;;6.31;100.00
75933;BME280;64803;52.356;5.310;2023-03-26T04:41:01;100757.34;;;6.37;100.00
75933;BME280;64803;52.356;5.310;2023-03-26T04:43:39;100756.28;;;6.47;100.00
75933;BME280;64803;52.356;5.310;2023-03-26T04:46:30;100749.16;;;6.56;100.00
75933;BME280;64803;52.356;5.310;2023-03-26T04:49:24;100737.72;;;6.63;100.00
75933;BME280;64803;52.356;5.310;2023-03-26T04:51:51;100734.59;;;6.68;100.00
75933;BME280;64803;52.356;5.310;2023-03-26T04:54:43;100726.91;;;6.65;100.00
75933;BME280;64803;52.356;5.310;2023-03-26T04:57:24;100728.50;;;6.58;100.00
75933;BME280;64803;52.356;5.310;2023-03-26T04:59:58;100723.19;;;6.58;100.00
75933;BME280;64803;52.356;5.310;2023-03-26T05:02:26;100723.19;;;6.58;100.00
75933;BME280;64803;52.356;5.310;2023-03-26T05:04:53;100720.53;;;6.40;100.00
75933;BME280;64803;52.356;5.310;2023-03-26T05:07:22;100725.03;;;6.40;100.00
75933;BME280;64803;52.356;5.310;2023-03-26T05:09:54;100723.38;;;6.39;100.00
75933;BME280;64803;52.356;5.310;2023-03-26T05:12:30;100712.16;;;6.35;100.00
75933;BME280;64803;52.356;5.310;2023-03-26T05:15:07;100721.72;;;6.38;100.00
75933;BME280;64803;52.356;5.310;2023-03-26T05:17:57;100730.25;;;6.41;100.00
75933;BME280;64803;52.356;5.310;2023-03-26T05:20:29;100722.75;;;6.45;100.00
75933;BME280;64803;52.356;5.310;2023-03-26T05:22:56;100721.06;;;6.44;100.00
75933;BME280;64803;52.356;5.310;2023-03-26T05:25:28;100716.06;;;6.41;100.00
75933;BME280;64803;52.356;5.310;2023-03-26T05:27:55;100713.22;;;6.42;100.00
75933;BME280;64803;52.356;5.310;2023-03-26T05:30:25;100693.97;;;6.31;100.00
75933;BME280;64803;52.356;5.310;2023-03-26T05:32:56;100707.72;;;6.44;100.00
75933;BME280;64803;52.356;5.310;2023-03-26T05:35:27;100713.44;;;6.49;100.00
75933;BME280;64803;52.356;5.310;2023-03-26T05:37:54;100704.13;;;6.53;100.00
75933;BME280;64803;52.356;5.310;2023-03-26T05:40:22;100705.50;;;6.57;100.00
75933;BME280;64803;52.356;5.310;2023-03-26T05:42:55;100704.34;;;6.59;100.00
75933;BME280;64803;52.356;5.310;2023-03-26T05:45:33;100704.88;;;6.63;100.00
75933;BME280;64803;52.356;5.310;2023-03-26T05:48:09;100699.75;;;6.69;100.00
75933;BME280;64803;52.356;5.310;2023-03-26T05:50:35;100690.75;;;6.70;100.00
75933;BME280;64803;52.356;5.310;2023-03-26T05:53:01;100687.25;;;6.70;100.00
75933;BME280;64803;52.356;5.310;2023-03-26T05:56:05;100694.94;;;6.73;100.00
75933;BME280;64803;52.356;5.310;2023-03-26T05:58:50;100693.94;;;6.74;100.00
75933;BME280;64803;52.356;5.310;2023-03-26T06:01:34;100691.81;;;6.77;100.00
75933;BME280;64803;52.356;5.310;2023-03-26T06:04:36;100689.34;;;6.84;100.00
75933;BME280;64803;52.356;5.310;2023-03-26T06:07:24;100690.19;;;6.84;100.00
75933;BME280;64803;52.356;5.310;2023-03-26T06:10:06;100677.81;;;6.83;100.00
75933;BME280;64803;52.356;5.310;2023-03-26T06:12:34;100678.50;;;6.85;100.00
75933;BME280;64803;52.356;5.310;2023-03-26T06:15:01;100673.16;;;6.85;100.00
75933;BME280;64803;52.356;5.310;2023-03-26T06:17:51;100668.81;;;6.84;100.00
75933;BME280;64803;52.356;5.310;2023-03-26T06:20:33;100668.34;;;6.89;100.00
75933;BME280;64803;52.356;5.310;2023-03-26T06:23:05;100666.03;;;6.94;100.00
75933;BME280;64803;52.356;5.310;2023-03-26T06:26:06;100653.38;;;6.96;100.00
75933;BME280;64803;52.356;5.310;2023-03-26T06:28:50;100648.19;;;6.95;100.00
75933;BME280;64803;52.356;5.310;2023-03-26T06:31:40;100650.75;;;7.04;100.00
75933;BME280;64803;52.356;5.310;2023-03-26T06:34:21;100651.09;;;7.09;100.00
75933;BME280;64803;52.356;5.310;2023-03-26T06:36:47;100651.25;;;7.08;100.00
75933;BME280;64803;52.356;5.310;2023-03-26T06:39:18;100594.88;;;6.77;100.00
75933;BME280;64803;52.356;5.310;2023-03-26T06:42:04;100649.75;;;7.13;100.00
75933;BME280;64803;52.356;5.310;2023-03-26T06:44:49;100643.44;;;7.14;100.00
75933;BME280;64803;52.356;5.310;2023-03-26T06:47:33;100646.63;;;7.18;100.00
75933;BME280;64803;52.356;5.310;2023-03-26T06:50:18;100647.47;;;7.18;100.00
75933;BME280;64803;52.356;5.310;2023-03-26T06:53:16;100640.44;;;7.17;100.00
75933;BME280;64803;52.356;5.310;2023-03-26T06:55:53;100640.63;;;7.24;100.00
75933;BME280;64803;52.356;5.310;2023-03-26T06:58:19;100632.81;;;7.30;100.00
75933;BME280;64803;52.356;5.310;2023-03-26T07:01:04;100639.31;;;7.36;100.00
75933;BME280;64803;52.356;5.310;2023-03-26T07:03:48;100636.00;;;7.42;100.00
75933;BME280;64803;52.356;5.310;2023-03-26T07:06:32;100639.53;;;7.42;100.00
75933;BME280;64803;52.356;5.310;2023-03-26T07:09:17;100642.22;;;7.50;100.00
75933;BME280;64803;52.356;5.310;2023-03-26T07:12:01;100641.88;;;7.53;100.00
75933;BME280;64803;52.356;5.310;2023-03-26T07:14:46;100642.09;;;7.60;100.00
75933;BME280;64803;52.356;5.310;2023-03-26T07:17:45;100637.25;;;7.63;100.00
75933;BME280;64803;52.356;5.310;2023-03-26T07:20:14;100634.56;;;7.71;100.00
75933;BME280;64803;52.356;5.310;2023-03-26T07:22:41;100630.88;;;7.72;100.00
75933;BME280;64803;52.356;5.310;2023-03-26T07:25:37;100631.25;;;7.77;100.00
75933;BME280;64803;52.356;5.310;2023-03-26T07:31:25;100643.09;;;7.83;100.00
75933;BME280;64803;52.356;5.310;2023-03-26T07:46:34;100635.59;;;7.70;100.00
75933;BME280;64803;52.356;5.310;2023-03-26T07:49:20;100639.25;;;7.69;100.00
75933;BME280;64803;52.356;5.310;2023-03-26T07:52:09;100637.06;;;7.73;100.00
75933;BME280;64803;52.356;5.310;2023-03-26T07:55:01;100632.75;;;7.80;100.00
75933;BME280;64803;52.356;5.310;2023-03-26T07:58:16;100627.91;;;7.75;100.00
75933;BME280;64803;52.356;5.310;2023-03-26T08:07:08;100639.25;;;7.69;100.00
75933;BME280;64803;52.356;5.310;2023-03-26T08:10:29;100636.25;;;7.80;100.00
75933;BME280;64803;52.356;5.310;2023-03-26T08:18:24;100636.22;;;7.72;100.00
75933;BME280;64803;52.356;5.310;2023-03-26T08:21:14;100638.91;;;7.72;100.00
75933;BME280;64803;52.356;5.310;2023-03-26T08:24:07;100642.25;;;7.74;100.00
75933;BME280;64803;52.356;5.310;2023-03-26T08:26:54;100632.91;;;7.70;100.00
75933;BME280;64803;52.356;5.310;2023-03-26T08:29:25;100636.22;;;7.72;100.00
75933;BME280;64803;52.356;5.310;2023-03-26T08:31:54;100634.56;;;7.71;100.00
75933;BME280;64803;52.356;5.310;2023-03-26T08:34:22;100639.91;;;7.71;100.00
75933;BME280;64803;52.356;5.310;2023-03-26T08:36:48;100636.91;;;7.74;100.00
75933;BME280;64803;52.356;5.310;2023-03-26T08:39:14;100637.59;;;7.76;100.00
75933;BME280;64803;52.356;5.310;2023-03-26T08:42:06;100647.59;;;7.66;100.00
75933;BME280;64803;52.356;5.310;2023-03-26T08:56:00;100646.09;;;7.72;100.00
75933;BME280;64803;52.356;5.310;2023-03-26T09:27:08;100647.31;;;8.02;100.00
75933;BME280;64803;52.356;5.310;2023-03-26T09:35:12;100648.97;;;7.94;100.00
75933;BME280;64803;52.356;5.310;2023-03-26T09:57:59;100669.00;;;7.98;100.00
75933;BME280;64803;52.356;5.310;2023-03-26T10:00:35;100667.19;;;7.91;100.00
75933;BME280;64803;52.356;5.310;2023-03-26T10:03:15;100636.94;;;7.82;100.00
75933;BME280;64803;52.356;5.310;2023-03-26T10:14:02;100681.72;;;7.96;100.00
75933;BME280;64803;52.356;5.310;2023-03-26T10:17:30;100682.38;;;7.98;100.00
75933;BME280;64803;52.356;5.310;2023-03-26T10:25:16;100678.38;;;8.02;100.00
75933;BME280;64803;52.356;5.310;2023-03-26T10:27:54;100683.06;;;8.00;100.00
75933;BME280;64803;52.356;5.310;2023-03-26T10:30:52;100691.09;;;8.09;100.00
75933;BME280;64803;52.356;5.310;2023-03-26T10:33:27;100691.91;;;8.09;100.00
75933;BME280;64803;52.356;5.310;2023-03-26T10:41:29;100693.59;;;8.18;97.41
75933;BME280;64803;52.356;5.310;2023-03-26T10:52:41;100693.47;;;8.68;98.31
75933;BME280;64803;52.356;5.310;2023-03-26T10:55:39;100711.19;;;8.69;98.47
75933;BME280;64803;52.356;5.310;2023-03-26T11:01:09;100711.03;;;8.62;95.53
75933;BME280;64803;52.356;5.310;2023-03-26T11:06:29;100711.34;;;8.67;96.62
75933;BME280;64803;52.356;5.310;2023-03-26T11:14:14;100715.88;;;8.59;91.45
75933;BME280;64803;52.356;5.310;2023-03-26T11:31:02;100723.88;;;8.83;87.91
75933;BME280;64803;52.356;5.310;2023-03-26T11:33:34;100725.88;;;8.89;87.08
75933;BME280;64803;52.356;5.310;2023-03-26T11:36:06;100729.72;;;8.86;90.04
75933;BME280;64803;52.356;5.310;2023-03-26T11:38:54;100724.84;;;9.06;89.64
75933;BME280;64803;52.356;5.310;2023-03-26T11:41:28;100737.25;;;8.99;87.23
75933;BME280;64803;52.356;5.310;2023-03-26T11:44:23;100747.97;;;8.99;86.53
75933;BME280;64803;52.356;5.310;2023-03-26T11:46:55;100704.81;;;8.78;87.10
75933;BME280;64803;52.356;5.310;2023-03-26T11:49:24;100741.56;;;9.16;87.71
75933;BME280;64803;52.356;5.310;2023-03-26T11:51:52;100703.09;;;9.01;87.79
75933;BME280;64803;52.356;5.310;2023-03-26T11:54:19;100744.41;;;9.15;85.16
75933;BME280;64803;52.356;5.310;2023-03-26T11:57:02;100744.22;;;9.16;84.79
75933;BME280;64803;52.356;5.310;2023-03-26T11:59:33;100744.22;;;9.16;83.96
75933;BME280;64803;52.356;5.310;2023-03-26T12:04:35;100748.53;;;9.33;86.52
75933;BME280;64803;52.356;5.310;2023-03-26T12:07:17;100746.38;;;9.29;83.62
75933;BME280;64803;52.356;5.310;2023-03-26T12:09:50;100748.84;;;9.38;84.92
75933;BME280;64803;52.356;5.310;2023-03-26T12:12:17;100744.47;;;9.45;84.68
75933;BME280;64803;52.356;5.310;2023-03-26T12:14:43;100754.59;;;9.27;84.07
75933;BME280;64803;52.356;5.310;2023-03-26T12:17:24;100757.97;;;9.13;83.79
75933;BME280;64803;52.356;5.310;2023-03-26T12:19:52;100759.28;;;9.17;87.04
75933;BME280;64803;52.356;5.310;2023-03-26T13:00:02;100791.78;;;8.98;82.88
75933;BME280;64803;52.356;5.310;2023-03-26T13:08:24;100795.81;;;9.18;81.62
75933;BME280;64803;52.356;5.310;2023-03-26T13:35:29;100821.94;;;8.84;81.22
75933;BME280;64803;52.356;5.310;2023-03-26T13:40:44;100845.53;;;8.96;80.19
75933;BME280;64803;52.356;5.310;2023-03-26T13:43:39;100848.41;;;8.87;76.97
75933;BME280;64803;52.356;5.310;2023-03-26T13:46:29;100857.72;;;8.67;77.32
75933;BME280;64803;52.356;5.310;2023-03-26T13:49:01;100862.09;;;8.68;78.72
75933;BME280;64803;52.356;5.310;2023-03-26T13:51:36;100843.38;;;8.68;78.38
75933;BME280;64803;52.356;5.310;2023-03-26T13:54:29;100856.03;;;8.42;77.08
75933;BME280;64803;52.356;5.310;2023-03-26T13:59:55;100862.72;;;8.38;75.85
75933;BME280;64803;52.356;5.310;2023-03-26T14:08:00;100871.41;;;8.48;77.45
75933;BME280;64803;52.356;5.310;2023-03-26T14:10:33;100884.19;;;8.20;75.84
75933;BME280;64803;52.356;5.310;2023-03-26T14:13:21;100887.66;;;8.05;75.53
75933;BME280;64803;52.356;5.310;2023-03-26T14:15:54;100879.97;;;8.10;78.44
75933;BME280;64803;52.356;5.310;2023-03-26T14:21:32;100888.19;;;8.16;78.82
75933;BME280;64803;52.356;5.310;2023-03-26T14:27:19;100902.53;;;8.07;73.75
75933;BME280;64803;52.356;5.310;2023-03-26T14:44:21;100936.00;;;7.85;70.37
75933;BME280;64803;52.356;5.310;2023-03-26T14:55:05;100927.88;;;7.69;74.80
75933;BME280;64803;52.356;5.310;2023-03-26T15:20:20;100980.03;;;7.73;72.50
75933;BME280;64803;52.356;5.310;2023-03-26T15:26:03;100998.06;;;7.71;71.05
75933;BME280;64803;52.356;5.310;2023-03-26T15:32:01;100986.00;;;7.67;68.66
75933;BME280;64803;52.356;5.310;2023-03-26T15:43:13;101014.44;;;7.68;67.03
75933;BME280;64803;52.356;5.310;2023-03-26T15:45:45;101017.16;;;7.76;68.35
75933;BME280;64803;52.356;5.310;2023-03-26T15:54:30;101054.44;;;7.60;63.34
75933;BME280;64803;52.356;5.310;2023-03-26T15:57:18;101061.47;;;7.61;65.07
75933;BME280;64803;52.356;5.310;2023-03-26T16:00:25;101065.81;;;7.62;65.86
75933;BME280;64803;52.356;5.310;2023-03-26T16:10:57;101081.63;;;7.56;64.38
75933;BME280;64803;52.356;5.310;2023-03-26T16:18:45;101091.91;;;7.16;64.31
75933;BME280;64803;52.356;5.310;2023-03-26T16:26:39;101104.13;;;7.18;74.06
75933;BME280;64803;52.356;5.310;2023-03-26T16:32:03;101121.47;;;7.05;71.58
75933;BME280;64803;52.356;5.310;2023-03-26T16:34:58;101129.09;;;7.00;70.70
75933;BME280;64803;52.356;5.310;2023-03-26T16:43:02;101141.72;;;6.98;74.51
75933;BME280;64803;52.356;5.310;2023-03-26T16:48:28;101159.63;;;6.88;72.76
75933;BME280;64803;52.356;5.310;2023-03-26T16:53:50;101167.63;;;6.88;75.42
75933;BME280;64803;52.356;5.310;2023-03-26T16:57:03;101168.78;;;6.85;71.60
75933;BME280;64803;52.356;5.310;2023-03-26T17:07:37;101195.59;;;6.83;66.01
75933;BME280;64803;52.356;5.310;2023-03-26T17:11:14;101197.72;;;6.80;69.33
75933;BME280;64803;52.356;5.310;2023-03-26T17:13:21;101196.91;;;6.70;70.60
75933;BME280;64803;52.356;5.310;2023-03-26T17:16:00;101213.94;;;6.69;66.54
75933;BME280;64803;52.356;5.310;2023-03-26T17:21:15;101220.22;;;6.68;69.46
75933;BME280;64803;52.356;5.310;2023-03-26T17:32:09;101240.91;;;6.56;63.92
75933;BME280;64803;52.356;5.310;2023-03-26T17:37:23;101240.22;;;6.45;62.67
75933;BME280;64803;52.356;5.310;2023-03-26T17:44:54;101257.78;;;6.38;62.27
75933;BME280;64803;52.356;5.310;2023-03-26T17:47:47;101258.47;;;6.40;63.36
75933;BME280;64803;52.356;5.310;2023-03-26T17:50:25;101276.16;;;6.41;68.85
75933;BME280;64803;52.356;5.310;2023-03-26T17:53:00;101261.00;;;6.41;74.70
75933;BME280;64803;52.356;5.310;2023-03-26T17:55:33;101270.84;;;6.41;75.38
75933;BME280;64803;52.356;5.310;2023-03-26T17:58:02;101292.16;;;6.41;75.88
75933;BME280;64803;52.356;5.310;2023-03-26T18:00:38;101285.84;;;6.42;75.35
75933;BME280;64803;52.356;5.310;2023-03-26T18:03:22;101296.66;;;6.40;74.88
75933;BME280;64803;52.356;5.310;2023-03-26T18:05:58;101303.25;;;6.36;71.52
75933;BME280;64803;52.356;5.310;2023-03-26T18:16:44;101325.28;;;6.19;74.50
75933;BME280;64803;52.356;5.310;2023-03-26T18:19:15;101330.75;;;6.18;72.64
75933;BME280;64803;52.356;5.310;2023-03-26T18:21:46;101328.06;;;6.08;71.68
75933;BME280;64803;52.356;5.310;2023-03-26T18:24:23;101323.00;;;5.96;71.69
75933;BME280;64803;52.356;5.310;2023-03-26T18:26:54;101340.09;;;5.93;72.21
75933;BME280;64803;52.356;5.310;2023-03-26T18:29:27;101353.69;;;5.90;72.67
75933;BME280;64803;52.356;5.310;2023-03-26T18:31:59;101362.41;;;5.92;72.72
75933;BME280;64803;52.356;5.310;2023-03-26T18:34:28;101358.47;;;5.87;75.03
75933;BME280;64803;52.356;5.310;2023-03-26T18:37:11;101365.28;;;5.80;76.70
75933;BME280;64803;52.356;5.310;2023-03-26T18:39:41;101372.28;;;5.81;77.20
75933;BME280;64803;52.356;5.310;2023-03-26T18:42:17;101378.72;;;5.78;76.61
75933;BME280;64803;52.356;5.310;2023-03-26T18:44:48;101401.59;;;5.81;71.00
75933;BME280;64803;52.356;5.310;2023-03-26T18:47:16;101401.16;;;5.75;68.41
75933;BME280;64803;52.356;5.310;2023-03-26T18:49:43;101417.84;;;5.78;67.80
75933;BME280;64803;52.356;5.310;2023-03-26T18:52:14;101404.66;;;5.76;69.06
75933;BME280;64803;52.356;5.310;2023-03-26T18:54:41;101412.50;;;5.68;69.93
75933;BME280;64803;52.356;5.310;2023-03-26T18:57:10;101412.06;;;5.72;68.47
75933;BME280;64803;52.356;5.310;2023-03-26T18:59:36;101424.69;;;5.70;69.77
75933;BME280;64803;52.356;5.310;2023-03-26T19:02:10;101428.34;;;5.69;71.24
75933;BME280;64803;52.356;5.310;2023-03-26T19:04:40;101429.19;;;5.70;71.98
75933;BME280;64803;52.356;5.310;2023-03-26T19:07:12;101438.28;;;5.67;71.80
75933;BME280;64803;52.356;5.310;2023-03-26T19:09:40;101449.94;;;5.66;71.86
75933;BME280;64803;52.356;5.310;2023-03-26T19:12:19;101444.13;;;5.61;74.04
75933;BME280;64803;52.356;5.310;2023-03-26T19:15:03;101449.44;;;5.61;73.41
75933;BME280;64803;52.356;5.310;2023-03-26T19:17:31;101448.94;;;5.67;71.26
75933;BME280;64803;52.356;5.310;2023-03-26T19:20:00;101454.09;;;5.59;73.40
75933;BME280;64803;52.356;5.310;2023-03-26T19:22:27;101466.25;;;5.52;75.12
75933;BME280;64803;52.356;5.310;2023-03-26T19:24:57;101430.97;;;5.39;72.89
75933;BME280;64803;52.356;5.310;2023-03-26T19:27:24;101466.88;;;5.65;71.90
75933;BME280;64803;52.356;5.310;2023-03-26T19:29:50;101482.13;;;5.63;72.03
75933;BME280;64803;52.356;5.310;2023-03-26T19:32:19;101485.53;;;5.65;72.62
75933;BME280;64803;52.356;5.310;2023-03-26T19:34:46;101486.69;;;5.72;71.90
75933;BME280;64803;52.356;5.310;2023-03-26T19:39:50;101491.75;;;5.75;68.59
75933;BME280;64803;52.356;5.310;2023-03-26T19:42:24;101478.53;;;5.64;70.86
75933;BME280;64803;52.356;5.310;2023-03-26T19:44:52;101488.59;;;5.61;71.88
75933;BME280;64803;52.356;5.310;2023-03-26T19:47:22;101495.00;;;5.58;72.71
75933;BME280;64803;52.356;5.310;2023-03-26T19:49:51;101503.13;;;5.57;74.15
75933;BME280;64803;52.356;5.310;2023-03-26T19:52:26;101503.72;;;5.60;73.06
75933;BME280;64803;52.356;5.310;2023-03-26T19:55:01;101511.97;;;5.57;73.20
75933;BME280;64803;52.356;5.310;2023-03-26T19:57:30;101513.47;;;5.50;74.46
75933;BME280;64803;52.356;5.310;2023-03-26T20:00:05;101524.44;;;5.57;72.71
75933;BME280;64803;52.356;5.310;2023-03-26T20:02:42;101477.88;;;5.31;73.76
75933;BME280;64803;52.356;5.310;2023-03-26T20:05:25;101522.88;;;5.54;74.18